createdAt,value
2018-09-30T00:00:53.633Z,74.23
2018-09-30T00:03:22.013Z,74.02
2018-09-30T00:05:50.365Z,73.93
2018-09-30T00:08:18.768Z,74.24
2018-09-30T00:10:47.133Z,74.56
2018-09-30T00:13:18.662Z,74.52
2018-09-30T00:15:47.079Z,74.40
2018-09-30T00:18:15.458Z,74.45
2018-09-30T00:20:43.922Z,74.26
2018-09-30T00:23:12.349Z,74.26
2018-09-30T00:25:45.977Z,73.87
2018-09-30T00:28:14.336Z,74.23
2018-09-30T00:30:42.700Z,74.07
2018-09-30T00:33:11.069Z,73.65
2018-09-30T00:35:39.477Z,73.97
2018-09-30T00:38:07.861Z,73.48
2018-09-30T00:40:36.243Z,73.63
2018-09-30T00:43:04.621Z,73.95
2018-09-30T00:45:32.993Z,73.55
2018-09-30T00:48:03.500Z,73.91
2018-09-30T00:50:31.905Z,73.85
2018-09-30T00:53:00.244Z,74.00
2018-09-30T00:55:28.624Z,74.37
2018-09-30T00:57:58.048Z,74.78
2018-09-30T01:00:26.548Z,74.45
2018-09-30T01:02:54.900Z,74.48
2018-09-30T01:05:23.301Z,74.16
2018-09-30T01:07:51.819Z,74.34
2018-09-30T01:10:20.221Z,74.28
2018-09-30T01:12:48.599Z,74.72
2018-09-30T01:15:17.030Z,74.32
2018-09-30T01:17:45.373Z,74.15
2018-09-30T01:20:13.744Z,74.09
2018-09-30T01:22:44.060Z,74.29
2018-09-30T01:25:12.444Z,73.19
2018-09-30T01:27:40.808Z,73.52
2018-09-30T01:30:09.196Z,73.38
2018-09-30T01:32:37.560Z,72.77
2018-09-30T01:35:05.949Z,72.69
2018-09-30T01:37:34.361Z,72.31
2018-09-30T01:40:02.760Z,71.88
2018-09-30T01:42:32.109Z,72.08
2018-09-30T01:45:00.480Z,71.58
2018-09-30T01:47:28.844Z,72.14
2018-09-30T01:49:57.217Z,71.45
2018-09-30T01:52:58.296Z,71.58
2018-09-30T01:55:26.696Z,71.86
2018-09-30T01:57:55.052Z,72.15
2018-09-30T02:00:23.429Z,72.36
2018-09-30T02:02:51.788Z,71.45
2018-09-30T02:05:20.153Z,71.30
2018-09-30T02:07:49.068Z,71.32
2018-09-30T02:10:17.769Z,71.35
2018-09-30T02:12:46.493Z,71.25
2018-09-30T02:15:14.902Z,71.37
2018-09-30T02:17:44.381Z,71.29
2018-09-30T02:20:12.724Z,71.17
2018-09-30T02:22:41.076Z,71.39
2018-09-30T02:25:09.412Z,71.97
2018-09-30T02:27:37.752Z,71.88
2018-09-30T02:30:06.386Z,71.30
2018-09-30T02:32:34.716Z,71.69
2018-09-30T02:35:03.067Z,71.90
2018-09-30T02:37:31.444Z,71.24
2018-09-30T02:40:00.885Z,71.55
2018-09-30T02:42:29.233Z,70.89
2018-09-30T02:44:57.606Z,71.53
2018-09-30T02:47:25.937Z,71.56
2018-09-30T02:49:54.292Z,71.59
2018-09-30T02:52:22.645Z,70.97
2018-09-30T02:54:51.004Z,71.02
2018-09-30T02:57:19.369Z,70.55
2018-09-30T02:59:47.717Z,70.52
2018-09-30T03:02:16.057Z,70.80
2018-09-30T03:04:44.427Z,70.14
2018-09-30T03:07:18.140Z,70.05
2018-09-30T03:09:46.488Z,70.27
2018-09-30T03:12:14.860Z,70.59
2018-09-30T03:14:43.209Z,70.83
2018-09-30T03:17:11.568Z,70.95
2018-09-30T03:19:39.913Z,70.67
2018-09-30T03:22:08.277Z,70.79
2018-09-30T03:24:36.739Z,70.09
2018-09-30T03:27:05.081Z,70.56
2018-09-30T03:29:33.421Z,70.16
2018-09-30T03:32:01.779Z,69.52
2018-09-30T03:34:30.119Z,69.54
2018-09-30T03:36:58.492Z,68.74
2018-09-30T03:39:26.884Z,68.83
2018-09-30T03:41:55.228Z,69.17
2018-09-30T03:44:23.612Z,69.37
2018-09-30T03:46:51.984Z,69.39
2018-09-30T03:49:20.346Z,69.04
2018-09-30T03:51:48.722Z,69.35
2018-09-30T03:54:17.090Z,69.59
2018-09-30T03:56:45.516Z,69.21
2018-09-30T03:59:13.845Z,69.63
2018-09-30T04:01:42.234Z,69.89
2018-09-30T04:04:10.606Z,70.13
2018-09-30T04:06:38.965Z,70.13
2018-09-30T04:09:08.724Z,70.08
2018-09-30T04:11:37.440Z,70.53
2018-09-30T04:14:05.843Z,70.85
2018-09-30T04:16:34.228Z,70.43
2018-09-30T04:19:02.757Z,70.78
2018-09-30T04:21:31.122Z,70.72
2018-09-30T04:24:07.316Z,70.00
2018-09-30T04:26:37.520Z,69.64
2018-09-30T04:29:06.178Z,69.72
2018-09-30T04:31:34.824Z,69.73
2018-09-30T04:34:03.681Z,69.87
2018-09-30T04:36:33.192Z,69.89
2018-09-30T04:39:01.661Z,70.03
2018-09-30T04:41:30.666Z,70.40
2018-09-30T04:43:59.232Z,70.84
2018-09-30T04:46:27.953Z,70.33
2018-09-30T04:48:56.289Z,70.58
2018-09-30T04:51:24.625Z,70.89
2018-09-30T04:53:52.994Z,70.76
2018-09-30T04:56:21.380Z,70.46
2018-09-30T04:58:49.711Z,70.49
2018-09-30T05:01:18.040Z,70.19
2018-09-30T05:03:46.372Z,70.58
2018-09-30T05:06:14.823Z,70.70
2018-09-30T05:08:43.175Z,70.75
2018-09-30T05:11:11.539Z,71.23
2018-09-30T05:13:39.916Z,71.12
2018-09-30T05:16:08.338Z,71.00
2018-09-30T05:18:36.635Z,71.01
2018-09-30T05:21:04.987Z,70.81
2018-09-30T05:23:33.333Z,70.71
2018-09-30T05:26:01.740Z,70.18
2018-09-30T05:28:30.065Z,69.89
2018-09-30T05:30:58.417Z,70.27
2018-09-30T05:33:26.756Z,70.02
2018-09-30T05:35:55.197Z,69.66
2018-09-30T05:38:23.534Z,69.67
2018-09-30T05:40:51.892Z,69.55
2018-09-30T05:43:20.246Z,69.63
2018-09-30T05:45:48.616Z,70.30
2018-09-30T05:48:16.939Z,69.80
2018-09-30T05:50:45.284Z,69.58
2018-09-30T05:53:14.679Z,70.04
2018-09-30T05:55:43.064Z,69.57
2018-09-30T05:58:11.396Z,70.09
2018-09-30T06:00:40.061Z,70.26
2018-09-30T06:03:08.553Z,69.53
2018-09-30T06:05:36.908Z,69.67
2018-09-30T06:08:05.266Z,69.91
2018-09-30T06:10:33.597Z,69.55
2018-09-30T06:13:03.052Z,69.14
2018-09-30T06:15:31.419Z,69.03
2018-09-30T06:18:00.184Z,69.06
2018-09-30T06:20:28.525Z,68.64
2018-09-30T06:22:56.905Z,68.33
2018-09-30T06:25:25.318Z,68.70
2018-09-30T06:27:53.704Z,69.07
2018-09-30T06:30:23.136Z,69.28
2018-09-30T06:32:51.521Z,68.53
2018-09-30T06:35:19.905Z,69.35
2018-09-30T06:37:48.265Z,68.88
2018-09-30T06:40:16.664Z,68.55
2018-09-30T06:42:45.017Z,68.06
2018-09-30T06:45:13.421Z,67.23
2018-09-30T06:47:41.776Z,67.55
2018-09-30T06:50:10.153Z,66.90
2018-09-30T06:52:38.528Z,67.38
2018-09-30T06:55:06.976Z,67.85
2018-09-30T06:57:35.369Z,67.59
2018-09-30T07:00:04.797Z,67.37
2018-09-30T07:02:33.161Z,67.24
2018-09-30T07:05:01.614Z,67.24
2018-09-30T07:07:30.964Z,66.96
2018-09-30T07:09:59.345Z,66.80
2018-09-30T07:12:27.722Z,66.88
2018-09-30T07:14:56.110Z,66.91
2018-09-30T07:17:24.510Z,66.53
2018-09-30T07:19:52.888Z,66.11
2018-09-30T07:22:21.344Z,65.93
2018-09-30T07:24:51.766Z,65.63
2018-09-30T07:27:20.121Z,66.10
2018-09-30T07:29:52.329Z,65.90
2018-09-30T07:32:20.684Z,64.91
2018-09-30T07:34:49.179Z,65.12
2018-09-30T07:37:17.656Z,64.78
2018-09-30T07:39:46.041Z,64.90
2018-09-30T07:42:14.401Z,64.75
2018-09-30T07:44:42.981Z,64.49
2018-09-30T07:47:11.331Z,64.50
2018-09-30T07:49:39.740Z,64.30
2018-09-30T07:52:08.137Z,64.26
2018-09-30T07:54:37.510Z,64.68
2018-09-30T07:57:06.230Z,64.16
2018-09-30T07:59:34.620Z,63.71
2018-09-30T08:02:02.998Z,63.67
2018-09-30T08:04:31.353Z,63.14
2018-09-30T08:07:01.797Z,62.72
2018-09-30T08:09:31.173Z,62.73
2018-09-30T08:11:59.505Z,63.75
2018-09-30T08:14:27.903Z,63.88
2018-09-30T08:16:56.879Z,63.43
2018-09-30T08:19:25.852Z,62.92
2018-09-30T08:21:55.291Z,62.18
2018-09-30T08:24:24.564Z,62.94
2018-09-30T08:26:52.866Z,63.08
2018-09-30T08:29:21.219Z,62.18
2018-09-30T08:31:49.677Z,62.08
2018-09-30T08:34:18.028Z,62.19
2018-09-30T08:36:46.460Z,61.95
2018-09-30T08:39:14.784Z,60.80
2018-09-30T08:41:43.146Z,60.72
2018-09-30T08:44:11.555Z,60.49
2018-09-30T08:46:39.899Z,60.31
2018-09-30T08:49:09.256Z,59.37
2018-09-30T08:51:37.605Z,57.81
2018-09-30T08:54:07.266Z,59.84
2018-09-30T08:56:37.733Z,59.49
2018-09-30T08:59:06.137Z,59.00
2018-09-30T09:01:34.473Z,57.10
2018-09-30T09:04:02.841Z,57.31
2018-09-30T09:06:31.229Z,56.54
2018-09-30T09:08:59.580Z,56.99
2018-09-30T09:11:27.925Z,55.39
2018-09-30T09:13:56.280Z,54.15
2018-09-30T09:16:24.605Z,54.97
2018-09-30T09:18:52.955Z,54.95
2018-09-30T09:21:22.393Z,53.48
2018-09-30T09:23:50.772Z,53.96
2018-09-30T09:26:19.129Z,53.65
2018-09-30T09:28:47.485Z,53.81
2018-09-30T09:31:15.840Z,53.73
2018-09-30T09:33:44.189Z,53.44
2018-09-30T09:36:12.532Z,55.09
2018-09-30T09:38:40.873Z,54.27
2018-09-30T09:41:09.236Z,54.92
2018-09-30T09:43:38.629Z,53.78
2018-09-30T09:46:07.001Z,53.28
2018-09-30T09:48:35.328Z,53.11
2018-09-30T09:51:04.288Z,53.02
2018-09-30T09:53:32.635Z,52.23
2018-09-30T09:56:01.132Z,52.10
2018-09-30T09:58:29.456Z,52.27
2018-09-30T10:01:02.053Z,51.26
2018-09-30T10:03:30.460Z,53.15
2018-09-30T10:05:58.820Z,53.71
2018-09-30T10:08:27.150Z,53.14
2018-09-30T10:10:55.513Z,52.60
2018-09-30T10:13:23.869Z,53.54
2018-09-30T10:15:52.213Z,53.35
2018-09-30T10:18:20.557Z,53.18
2018-09-30T10:20:48.952Z,53.02
2018-09-30T10:23:17.297Z,53.21
2018-09-30T10:25:45.661Z,54.21
2018-09-30T10:28:14.013Z,54.47
2018-09-30T10:30:42.387Z,54.66
2018-09-30T10:33:10.737Z,54.24
2018-09-30T10:35:39.085Z,54.87
2018-09-30T10:38:07.485Z,54.77
2018-09-30T10:40:35.877Z,55.16
2018-09-30T10:43:04.192Z,54.07
2018-09-30T10:45:32.500Z,53.42
2018-09-30T10:48:00.844Z,53.65
2018-09-30T10:50:29.156Z,51.66
2018-09-30T10:52:57.472Z,51.03
2018-09-30T10:55:26.914Z,50.54
2018-09-30T10:57:55.184Z,51.13
2018-09-30T11:00:23.590Z,52.03
2018-09-30T11:02:53.663Z,51.99
2018-09-30T11:05:22.024Z,52.52
2018-09-30T11:07:50.363Z,52.87
2018-09-30T11:10:18.888Z,53.99
2018-09-30T11:12:47.203Z,53.62
2018-09-30T11:15:15.516Z,54.77
2018-09-30T11:17:44.928Z,54.02
2018-09-30T11:20:13.248Z,53.85
2018-09-30T11:22:41.605Z,54.21
2018-09-30T11:25:09.972Z,54.24
2018-09-30T11:27:38.358Z,53.09
2018-09-30T11:30:07.741Z,53.84
2018-09-30T11:32:36.102Z,53.33
2018-09-30T11:35:04.541Z,52.80
2018-09-30T11:37:33.012Z,53.08
2018-09-30T11:40:01.342Z,53.50
2018-09-30T11:42:29.687Z,52.65
2018-09-30T11:44:58.045Z,53.48
2018-09-30T11:47:26.414Z,52.89
2018-09-30T11:49:55.759Z,51.81
2018-09-30T11:52:24.121Z,52.23
2018-09-30T11:54:52.482Z,50.56
2018-09-30T11:57:20.836Z,52.27
2018-09-30T11:59:49.244Z,51.49
2018-09-30T12:02:17.688Z,51.54
2018-09-30T12:04:46.014Z,51.35
2018-09-30T12:07:14.381Z,51.53
2018-09-30T12:09:42.761Z,52.08
2018-09-30T12:12:11.597Z,52.04
2018-09-30T12:14:39.972Z,53.24
2018-09-30T12:17:08.311Z,53.19
2018-09-30T12:19:36.668Z,53.56
2018-09-30T12:22:05.313Z,53.27
2018-09-30T12:24:33.873Z,52.58
2018-09-30T12:27:02.224Z,52.25
2018-09-30T12:29:31.586Z,52.12
2018-09-30T12:31:59.932Z,52.93
2018-09-30T12:34:28.276Z,53.13
2018-09-30T12:36:57.916Z,53.54
2018-09-30T12:39:26.451Z,52.79
2018-09-30T12:41:54.728Z,52.33
2018-09-30T12:44:24.085Z,52.61
2018-09-30T12:46:52.438Z,53.25
2018-09-30T12:49:20.798Z,53.49
2018-09-30T12:51:49.213Z,52.90
2018-09-30T12:54:17.589Z,52.72
2018-09-30T12:56:45.937Z,52.51
2018-09-30T12:59:15.409Z,54.29
2018-09-30T13:01:43.765Z,52.05
2018-09-30T13:04:12.100Z,53.28
2018-09-30T13:06:40.476Z,53.86
2018-09-30T13:09:09.586Z,53.46
2018-09-30T13:11:37.981Z,53.62
2018-09-30T13:14:06.736Z,52.28
2018-09-30T13:16:36.157Z,52.83
2018-09-30T13:19:04.529Z,52.17
2018-09-30T13:21:32.892Z,51.70
2018-09-30T13:24:01.281Z,52.25
2018-09-30T13:26:29.608Z,51.79
2018-09-30T13:28:58.013Z,52.36
2018-09-30T13:31:26.344Z,52.49
2018-09-30T13:33:54.768Z,52.10
2018-09-30T13:36:24.013Z,50.77
2018-09-30T13:38:53.452Z,50.46
2018-09-30T13:41:21.929Z,49.81
2018-09-30T13:43:50.225Z,50.58
2018-09-30T13:46:18.651Z,51.57
2018-09-30T13:48:46.925Z,51.74
2018-09-30T13:51:15.294Z,52.55
2018-09-30T13:53:43.628Z,54.40
2018-09-30T13:56:12.036Z,54.50
2018-09-30T13:58:40.369Z,54.83
2018-09-30T14:01:08.949Z,54.92
2018-09-30T14:03:37.568Z,55.65
2018-09-30T14:06:05.957Z,55.37
2018-09-30T14:08:34.324Z,56.76
2018-09-30T14:11:03.712Z,56.90
2018-09-30T14:13:32.052Z,57.76
2018-09-30T14:16:00.513Z,58.72
2018-09-30T14:18:29.677Z,60.12
2018-09-30T14:20:58.000Z,60.37
2018-09-30T14:23:26.440Z,61.25
2018-09-30T14:25:54.789Z,61.28
2018-09-30T14:28:23.118Z,64.31
2018-09-30T14:30:51.476Z,65.44
2018-09-30T14:33:19.834Z,64.52
2018-09-30T14:35:49.203Z,63.82
2018-09-30T14:38:17.942Z,63.24
2018-09-30T14:40:46.277Z,63.47
2018-09-30T14:43:14.601Z,62.64
2018-09-30T14:45:42.948Z,61.64
2018-09-30T14:48:11.349Z,61.29
2018-09-30T14:50:39.628Z,60.69
2018-09-30T14:53:08.173Z,61.07
2018-09-30T14:55:36.502Z,60.75
2018-09-30T14:58:05.576Z,59.86
2018-09-30T15:00:33.937Z,60.42
2018-09-30T15:03:02.321Z,60.00
2018-09-30T15:05:30.669Z,59.25
2018-09-30T15:07:59.013Z,59.95
2018-09-30T15:10:27.385Z,59.70
2018-09-30T15:12:56.824Z,59.37
2018-09-30T15:15:25.169Z,58.55
2018-09-30T15:17:54.673Z,58.78
2018-09-30T15:20:23.017Z,58.57
2018-09-30T15:22:51.449Z,58.17
2018-09-30T15:25:19.786Z,57.89
2018-09-30T15:27:48.189Z,57.96
2018-09-30T15:30:17.557Z,58.42
2018-09-30T15:32:46.952Z,58.46
2018-09-30T15:35:15.381Z,58.22
2018-09-30T15:37:43.772Z,58.86
2018-09-30T15:40:13.119Z,58.66
2018-09-30T15:42:41.602Z,58.31
2018-09-30T15:45:10.270Z,56.70
2018-09-30T15:47:38.626Z,56.84
2018-09-30T15:50:08.069Z,57.02
2018-09-30T15:52:36.442Z,57.05
2018-09-30T15:55:04.817Z,57.59
2018-09-30T15:57:33.217Z,57.11
2018-09-30T16:00:01.546Z,56.17
2018-09-30T16:02:29.875Z,52.93
2018-09-30T16:04:58.347Z,49.38
2018-09-30T16:07:26.689Z,52.92
2018-09-30T16:09:55.031Z,54.24
2018-09-30T16:12:23.614Z,56.23
2018-09-30T16:14:51.956Z,56.13
2018-09-30T16:17:20.292Z,58.01
2018-09-30T16:19:49.724Z,58.23
2018-09-30T16:22:18.048Z,59.11
2018-09-30T16:24:46.388Z,59.95
2018-09-30T16:27:14.765Z,60.13
2018-09-30T16:29:44.150Z,61.69
2018-09-30T16:32:12.452Z,61.91
2018-09-30T16:34:40.811Z,62.27
2018-09-30T16:37:09.261Z,63.19
2018-09-30T16:39:37.618Z,63.49
2018-09-30T16:42:07.169Z,63.67
2018-09-30T16:44:35.567Z,63.50
2018-09-30T16:47:03.912Z,64.34
2018-09-30T16:49:32.424Z,64.25
2018-09-30T16:52:00.771Z,64.52
2018-09-30T16:54:30.169Z,64.02
2018-09-30T16:56:59.647Z,64.05
2018-09-30T16:59:28.006Z,64.47
2018-09-30T17:01:56.352Z,64.41
2018-09-30T17:04:24.756Z,64.71
2018-09-30T17:06:54.118Z,64.99
2018-09-30T17:09:22.540Z,64.87
2018-09-30T17:11:50.997Z,64.40
2018-09-30T17:14:19.393Z,64.28
2018-09-30T17:16:47.810Z,64.44
2018-09-30T17:19:17.293Z,65.04
2018-09-30T17:21:46.954Z,65.05
2018-09-30T17:24:15.330Z,64.90
2018-09-30T17:26:43.721Z,65.15
2018-09-30T17:29:12.141Z,64.58
2018-09-30T17:31:40.534Z,65.06
2018-09-30T17:34:08.957Z,65.14
2018-09-30T17:36:37.337Z,65.75
2018-09-30T17:39:07.946Z,65.22
2018-09-30T17:41:37.385Z,65.55
2018-09-30T17:44:05.983Z,65.06
2018-09-30T17:46:35.473Z,64.93
2018-09-30T17:49:04.034Z,65.27
2018-09-30T17:51:33.462Z,65.08
2018-09-30T17:54:01.896Z,65.78
2018-09-30T17:56:30.312Z,64.77
2018-09-30T17:58:59.757Z,65.28
2018-09-30T18:01:28.235Z,65.23
2018-09-30T18:03:56.631Z,65.16
2018-09-30T18:06:24.919Z,64.75
2018-09-30T18:08:53.258Z,65.79
2018-09-30T18:11:21.572Z,65.39
2018-09-30T18:13:49.919Z,65.11
2018-09-30T18:16:18.255Z,65.18
2018-09-30T18:18:47.659Z,65.01
2018-09-30T18:21:16.026Z,64.92
2018-09-30T18:23:44.474Z,65.20
2018-09-30T18:26:12.773Z,65.55
2018-09-30T18:28:41.136Z,65.49
2018-09-30T18:31:09.652Z,65.02
2018-09-30T18:33:38.059Z,65.74
2018-09-30T18:36:06.486Z,65.26
2018-09-30T18:38:34.845Z,64.64
2018-09-30T18:41:03.245Z,65.11
2018-09-30T18:43:31.613Z,64.62
2018-09-30T18:45:59.986Z,65.31
2018-09-30T18:48:28.379Z,65.19
2018-09-30T18:50:56.757Z,65.26
2018-09-30T18:53:26.128Z,65.47
2018-09-30T18:55:54.517Z,65.57
2018-09-30T18:58:22.845Z,65.78
2018-09-30T19:00:51.202Z,65.37
2018-09-30T19:03:19.627Z,65.59
2018-09-30T19:05:47.946Z,65.96
2018-09-30T19:08:16.349Z,66.05
2018-09-30T19:10:44.707Z,65.58
2018-09-30T19:13:13.092Z,65.94
2018-09-30T19:15:41.590Z,66.34
2018-09-30T19:18:10.980Z,66.41
2018-09-30T19:20:39.344Z,66.76
2018-09-30T19:23:09.776Z,67.74
2018-09-30T19:25:38.129Z,67.69
2018-09-30T19:28:06.516Z,68.70
2018-09-30T19:30:35.921Z,68.99
2018-09-30T19:33:04.273Z,68.96
2018-09-30T19:35:32.648Z,68.85
2018-09-30T19:38:01.025Z,69.38
2018-09-30T19:40:30.365Z,69.47
2018-09-30T19:42:58.736Z,69.51
2018-09-30T19:45:28.181Z,69.85
2018-09-30T19:47:57.603Z,70.31
2018-09-30T19:50:25.945Z,70.75
2018-09-30T19:52:54.316Z,70.83
2018-09-30T19:55:22.678Z,71.53
2018-09-30T19:57:51.157Z,71.99
2018-09-30T20:00:19.529Z,72.13
2018-09-30T20:02:47.896Z,71.95
2018-09-30T20:05:17.301Z,72.26
2018-09-30T20:07:45.669Z,72.13
2018-09-30T20:10:15.297Z,73.50
2018-09-30T20:12:43.648Z,75.17
2018-09-30T20:15:12.085Z,76.03
2018-09-30T20:17:40.409Z,76.67
2018-09-30T20:20:08.778Z,77.15
2018-09-30T20:22:37.140Z,78.09
2018-09-30T20:25:05.577Z,79.29
2018-09-30T20:27:33.877Z,79.82
2018-09-30T20:30:03.256Z,80.99
2018-09-30T20:32:31.689Z,80.90
2018-09-30T20:35:00.126Z,81.36
2018-09-30T20:37:28.563Z,81.90
2018-09-30T20:39:56.901Z,82.45
2018-09-30T20:42:25.261Z,83.16
2018-09-30T20:44:54.648Z,84.00
2018-09-30T20:47:23.019Z,83.86
2018-09-30T20:49:51.379Z,84.30
2018-09-30T20:52:20.939Z,84.44
2018-09-30T20:54:49.282Z,85.92
2018-09-30T20:57:21.344Z,85.23
2018-09-30T20:59:50.689Z,84.72
2018-09-30T21:02:19.064Z,84.44
2018-09-30T21:04:47.464Z,83.38
2018-09-30T21:07:15.800Z,84.06
2018-09-30T21:09:44.145Z,83.87
2018-09-30T21:12:12.530Z,83.48
2018-09-30T21:14:40.897Z,84.81
2018-09-30T21:17:10.269Z,84.99
2018-09-30T21:20:41.880Z,84.65
2018-09-30T21:23:10.249Z,85.25
2018-09-30T21:25:39.676Z,85.29
2018-09-30T21:28:08.072Z,85.77
2018-09-30T21:30:36.431Z,84.81
2018-09-30T21:33:04.808Z,84.78
2018-09-30T21:35:33.400Z,85.25
2018-09-30T21:38:01.952Z,84.87
2018-09-30T21:40:30.822Z,84.69
2018-09-30T21:42:59.222Z,83.19
2018-09-30T21:45:27.576Z,83.16
2018-09-30T21:47:55.916Z,83.63
2018-09-30T21:50:24.317Z,84.87
2018-09-30T21:52:52.798Z,84.72
2018-09-30T21:55:21.209Z,86.15
2018-09-30T21:57:51.986Z,86.39
2018-09-30T22:00:27.510Z,86.94
2018-09-30T22:02:58.468Z,88.03
2018-09-30T22:05:30.093Z,87.37
2018-09-30T22:08:01.260Z,87.83
2018-09-30T22:10:31.301Z,87.54
2018-09-30T22:13:04.136Z,87.36
2018-09-30T22:15:33.544Z,87.09
2018-09-30T22:18:01.973Z,86.74
2018-09-30T22:20:30.386Z,85.79
2018-09-30T22:22:58.729Z,86.19
2018-09-30T22:25:27.132Z,86.05
2018-09-30T22:27:55.561Z,85.90
2018-09-30T22:30:24.230Z,86.47
2018-09-30T22:32:52.609Z,86.69
2018-09-30T22:35:21.004Z,86.99
2018-09-30T22:37:49.428Z,86.63
2018-09-30T22:40:17.878Z,86.62
2018-09-30T22:42:46.229Z,86.71
2018-09-30T22:45:14.621Z,86.34
2018-09-30T22:47:42.972Z,85.12
2018-09-30T22:50:12.345Z,84.46
2018-09-30T22:52:40.721Z,84.93
2018-09-30T22:55:09.085Z,84.42
2018-09-30T22:57:38.872Z,84.04
2018-09-30T23:00:07.805Z,84.24
2018-09-30T23:02:36.213Z,83.33
2018-09-30T23:05:06.736Z,84.23
2018-09-30T23:07:35.444Z,85.72
2018-09-30T23:10:06.460Z,86.31
2018-09-30T23:12:34.864Z,86.77
2018-09-30T23:15:03.244Z,86.68
2018-09-30T23:17:31.729Z,86.92
2018-09-30T23:20:00.208Z,87.03
2018-09-30T23:22:28.551Z,86.92
2018-09-30T23:24:57.071Z,87.48
2018-09-30T23:27:27.417Z,87.52
2018-09-30T23:29:56.669Z,87.24
2018-09-30T23:32:25.303Z,86.94
2018-09-30T23:34:53.656Z,86.90
2018-09-30T23:37:22.005Z,87.45
2018-09-30T23:39:50.341Z,87.43
2018-09-30T23:42:18.696Z,87.73
2018-09-30T23:44:47.039Z,87.28
2018-09-30T23:47:16.303Z,86.90
2018-09-30T23:49:45.049Z,87.41
2018-09-30T23:52:13.416Z,87.70
2018-09-30T23:54:42.768Z,88.31
2018-09-30T23:57:11.242Z,89.74
2018-09-30T23:59:39.685Z,90.02
